sensor_id;sensor_type;location;lat;lon;timestamp;pressure;altitude;pressure_sealevel;temperature;humidity
37852;BME280;23691;52.486;4.650;2023-03-01T00:01:14;103336.06;;;3.00;75.20
37852;BME280;23691;52.486;4.650;2023-03-01T00:03:42;103319.22;;;3.03;75.37
37852;BME280;23691;52.486;4.650;2023-03-01T00:06:09;103321.00;;;3.03;75.37
37852;BME280;23691;52.486;4.650;2023-03-01T00:08:34;103314.81;;;3.04;75.07
37852;BME280;23691;52.486;4.650;2023-03-01T00:11:04;103311.22;;;3.05;75.28
37852;BME280;23691;52.486;4.650;2023-03-01T00:13:30;103317.38;;;3.05;75.38
37852;BME280;23691;52.486;4.650;2023-03-01T00:15:55;103311.19;;;3.06;75.34
37852;BME280;23691;52.486;4.650;2023-03-01T00:18:21;103310.38;;;3.04;75.39
37852;BME280;23691;52.486;4.650;2023-03-01T00:20:55;103312.19;;;3.02;75.65
37852;BME280;23691;52.486;4.650;2023-03-01T00:23:21;103308.81;;;2.98;75.47
37852;BME280;23691;52.486;4.650;2023-03-01T00:25:46;103308.03;;;2.95;75.67
37852;BME280;23691;52.486;4.650;2023-03-01T00:28:12;103305.47;;;2.93;75.82
37852;BME280;23691;52.486;4.650;2023-03-01T00:30:38;103302.88;;;2.92;75.62
37852;BME280;23691;52.486;4.650;2023-03-01T00:33:03;103302.88;;;2.92;75.89
37852;BME280;23691;52.486;4.650;2023-03-01T00:35:29;103302.84;;;2.93;75.72
37852;BME280;23691;52.486;4.650;2023-03-01T00:37:55;103308.97;;;2.94;75.88
37852;BME280;23691;52.486;4.650;2023-03-01T00:40:29;103304.66;;;2.91;76.22
37852;BME280;23691;52.486;4.650;2023-03-01T00:42:55;103307.31;;;2.91;76.16
37852;BME280;23691;52.486;4.650;2023-03-01T00:45:21;103308.16;;;2.92;76.54
37852;BME280;23691;52.486;4.650;2023-03-01T00:47:48;103297.63;;;2.90;76.52
37852;BME280;23691;52.486;4.650;2023-03-01T00:50:14;103295.06;;;2.89;76.60
37852;BME280;23691;52.486;4.650;2023-03-01T00:52:39;103304.94;;;2.84;76.57
37852;BME280;23691;52.486;4.650;2023-03-01T00:55:05;103303.19;;;2.83;76.95
37852;BME280;23691;52.486;4.650;2023-03-01T00:57:31;103302.44;;;2.79;76.69
37852;BME280;23691;52.486;4.650;2023-03-01T00:59:57;103302.56;;;2.76;76.96
37852;BME280;23691;52.486;4.650;2023-03-01T01:02:22;103305.22;;;2.76;77.29
37852;BME280;23691;52.486;4.650;2023-03-01T01:04:48;103301.78;;;2.72;76.89
37852;BME280;23691;52.486;4.650;2023-03-01T01:07:14;103293.03;;;2.70;77.01
37852;BME280;23691;52.486;4.650;2023-03-01T01:09:39;103292.34;;;2.65;76.96
37852;BME280;23691;52.486;4.650;2023-03-01T01:12:05;103291.53;;;2.63;77.13
37852;BME280;23691;52.486;4.650;2023-03-01T01:14:31;103289.84;;;2.61;76.83
37852;BME280;23691;52.486;4.650;2023-03-01T01:16:57;103288.16;;;2.60;77.23
37852;BME280;23691;52.486;4.650;2023-03-01T01:19:23;103288.16;;;2.60;77.30
37852;BME280;23691;52.486;4.650;2023-03-01T01:21:48;103288.25;;;2.56;76.78
37852;BME280;23691;52.486;4.650;2023-03-01T01:24:15;103283.06;;;2.53;77.34
37852;BME280;23691;52.486;4.650;2023-03-01T01:26:41;103280.38;;;2.55;77.15
37852;BME280;23691;52.486;4.650;2023-03-01T01:29:08;103270.81;;;2.51;76.99
37852;BME280;23691;52.486;4.650;2023-03-01T01:31:35;103262.88;;;2.51;77.16
37852;BME280;23691;52.486;4.650;2023-03-01T01:34:02;103262.94;;;2.49;76.94
37852;BME280;23691;52.486;4.650;2023-03-01T01:36:28;103256.97;;;2.44;76.65
37852;BME280;23691;52.486;4.650;2023-03-01T01:38:53;103253.53;;;2.41;77.03
37852;BME280;23691;52.486;4.650;2023-03-01T01:41:19;103251.88;;;2.38;76.71
37852;BME280;23691;52.486;4.650;2023-03-01T01:43:48;103244.91;;;2.35;76.70
37852;BME280;23691;52.486;4.650;2023-03-01T01:46:33;103245.88;;;2.33;76.86
37852;BME280;23691;52.486;4.650;2023-03-01T01:49:06;103252.13;;;2.30;76.95
37852;BME280;23691;52.486;4.650;2023-03-01T01:51:36;103252.13;;;2.30;76.63
37852;BME280;23691;52.486;4.650;2023-03-01T01:54:29;103246.84;;;2.30;76.56
37852;BME280;23691;52.486;4.650;2023-03-01T01:56:58;103250.44;;;2.29;76.53
37852;BME280;23691;52.486;4.650;2023-03-01T01:59:26;103241.72;;;2.26;76.79
37852;BME280;23691;52.486;4.650;2023-03-01T02:01:54;103240.97;;;2.22;76.58
37852;BME280;23691;52.486;4.650;2023-03-01T02:04:20;103236.81;;;2.15;76.45
37852;BME280;23691;52.486;4.650;2023-03-01T02:06:51;103236.00;;;2.13;76.77
37852;BME280;23691;52.486;4.650;2023-03-01T02:09:20;103234.22;;;2.13;77.20
37852;BME280;23691;52.486;4.650;2023-03-01T02:11:47;103235.97;;;2.14;76.92
37852;BME280;23691;52.486;4.650;2023-03-01T02:14:15;103235.97;;;2.14;76.73
37852;BME280;23691;52.486;4.650;2023-03-01T02:16:40;103241.16;;;2.16;76.70
37852;BME280;23691;52.486;4.650;2023-03-01T02:19:11;103242.09;;;2.15;76.99
37852;BME280;23691;52.486;4.650;2023-03-01T02:27:31;103228.38;;;2.04;76.93
37852;BME280;23691;52.486;4.650;2023-03-01T02:29:59;103233.72;;;2.02;77.19
37852;BME280;23691;52.486;4.650;2023-03-01T02:32:25;103231.13;;;2.01;77.09
37852;BME280;23691;52.486;4.650;2023-03-01T02:34:53;103221.47;;;2.00;76.80
37852;BME280;23691;52.486;4.650;2023-03-01T02:37:21;103216.25;;;1.98;77.00
37852;BME280;23691;52.486;4.650;2023-03-01T02:39:54;103215.50;;;1.95;76.46
37852;BME280;23691;52.486;4.650;2023-03-01T02:42:26;103216.47;;;1.92;76.62
37852;BME280;23691;52.486;4.650;2023-03-01T02:44:54;103217.47;;;1.88;76.37
37852;BME280;23691;52.486;4.650;2023-03-01T02:47:19;103222.84;;;1.85;76.68
37852;BME280;23691;52.486;4.650;2023-03-01T02:49:45;103212.31;;;1.83;76.63
37852;BME280;23691;52.486;4.650;2023-03-01T02:57:20;103204.81;;;1.71;76.46
37852;BME280;23691;52.486;4.650;2023-03-01T02:59:47;103201.47;;;1.66;76.58
37852;BME280;23691;52.486;4.650;2023-03-01T03:02:25;103197.97;;;1.65;76.28
37852;BME280;23691;52.486;4.650;2023-03-01T03:05:12;103198.13;;;1.59;76.34
37852;BME280;23691;52.486;4.650;2023-03-01T03:07:40;103202.69;;;1.54;76.36
37852;BME280;23691;52.486;4.650;2023-03-01T03:10:09;103195.75;;;1.52;76.28
37852;BME280;23691;52.486;4.650;2023-03-01T03:12:36;103193.16;;;1.50;76.23
37852;BME280;23691;52.486;4.650;2023-03-01T03:15:03;103194.09;;;1.47;76.33
37852;BME280;23691;52.486;4.650;2023-03-01T03:17:36;103192.34;;;1.48;76.09
37852;BME280;23691;52.486;4.650;2023-03-01T03:20:03;103188.03;;;1.45;75.91
37852;BME280;23691;52.486;4.650;2023-03-01T03:22:30;103183.66;;;1.44;75.98
37852;BME280;23691;52.486;4.650;2023-03-01T03:24:55;103178.44;;;1.43;75.61
37852;BME280;23691;52.486;4.650;2023-03-01T03:27:21;103176.69;;;1.42;75.84
37852;BME280;23691;52.486;4.650;2023-03-01T03:29:46;103175.03;;;1.39;75.75
37852;BME280;23691;52.486;4.650;2023-03-01T03:32:11;103171.56;;;1.37;75.95
37852;BME280;23691;52.486;4.650;2023-03-01T03:34:37;103174.28;;;1.36;75.79
37852;BME280;23691;52.486;4.650;2023-03-01T03:37:02;103174.34;;;1.33;75.83
37852;BME280;23691;52.486;4.650;2023-03-01T03:39:28;103170.94;;;1.29;75.76
37852;BME280;23691;52.486;4.650;2023-03-01T03:41:54;103168.41;;;1.26;76.00
37852;BME280;23691;52.486;4.650;2023-03-01T03:44:20;103166.66;;;1.25;75.80
37852;BME280;23691;52.486;4.650;2023-03-01T03:46:45;103164.09;;;1.23;75.92
37852;BME280;23691;52.486;4.650;2023-03-01T03:49:11;103160.69;;;1.20;75.56
37852;BME280;23691;52.486;4.650;2023-03-01T03:51:36;103169.50;;;1.19;75.96
37852;BME280;23691;52.486;4.650;2023-03-01T03:54:01;103167.72;;;1.19;75.77
37852;BME280;23691;52.486;4.650;2023-03-01T03:56:27;103163.41;;;1.17;75.83
37852;BME280;23691;52.486;4.650;2023-03-01T03:58:52;103161.72;;;1.14;75.67
37852;BME280;23691;52.486;4.650;2023-03-01T04:01:18;103160.06;;;1.12;75.79
37852;BME280;23691;52.486;4.650;2023-03-01T04:03:44;103154.91;;;1.07;75.51
37852;BME280;23691;52.486;4.650;2023-03-01T04:06:13;103159.47;;;1.02;75.50
37852;BME280;23691;52.486;4.650;2023-03-01T04:08:39;103153.38;;;1.00;75.78
37852;BME280;23691;52.486;4.650;2023-03-01T04:11:05;103156.03;;;0.98;75.53
37852;BME280;23691;52.486;4.650;2023-03-01T04:13:51;103149.03;;;0.99;75.36
37852;BME280;23691;52.486;4.650;2023-03-01T04:16:17;103149.03;;;0.99;75.68
37852;BME280;23691;52.486;4.650;2023-03-01T04:18:42;103149.03;;;0.99;75.53
37852;BME280;23691;52.486;4.650;2023-03-01T04:21:08;103145.59;;;0.95;75.55
37852;BME280;23691;52.486;4.650;2023-03-01T04:23:33;103149.16;;;0.94;75.43
37852;BME280;23691;52.486;4.650;2023-03-01T04:25:59;103146.53;;;0.94;75.45
37852;BME280;23691;52.486;4.650;2023-03-01T04:28:27;103143.03;;;0.94;75.20
37852;BME280;23691;52.486;4.650;2023-03-01T04:30:54;103138.66;;;0.93;75.40
37852;BME280;23691;52.486;4.650;2023-03-01T04:33:20;103138.72;;;0.91;75.24
37852;BME280;23691;52.486;4.650;2023-03-01T04:35:46;103129.03;;;0.92;75.19
37852;BME280;23691;52.486;4.650;2023-03-01T04:38:15;103126.47;;;0.89;75.11
37852;BME280;23691;52.486;4.650;2023-03-01T04:40:40;103135.28;;;0.88;75.02
37852;BME280;23691;52.486;4.650;2023-03-01T04:43:09;103134.53;;;0.84;74.86
37852;BME280;23691;52.486;4.650;2023-03-01T04:45:35;103126.66;;;0.82;75.22
37852;BME280;23691;52.486;4.650;2023-03-01T04:48:01;103128.44;;;0.82;75.10
37852;BME280;23691;52.486;4.650;2023-03-01T04:50:27;103125.84;;;0.80;75.29
37852;BME280;23691;52.486;4.650;2023-03-01T04:52:53;103124.13;;;0.79;74.96
37852;BME280;23691;52.486;4.650;2023-03-01T04:55:18;103122.44;;;0.77;75.23
37852;BME280;23691;52.486;4.650;2023-03-01T04:57:44;103122.47;;;0.75;74.98
37852;BME280;23691;52.486;4.650;2023-03-01T05:00:13;103128.66;;;0.74;74.99
37852;BME280;23691;52.486;4.650;2023-03-01T05:05:30;103135.84;;;0.69;75.12
37852;BME280;23691;52.486;4.650;2023-03-01T05:07:57;103134.06;;;0.70;75.17
37852;BME280;23691;52.486;4.650;2023-03-01T05:10:24;103138.47;;;0.69;74.96
37852;BME280;23691;52.486;4.650;2023-03-01T05:12:50;103135.00;;;0.67;74.95
37852;BME280;23691;52.486;4.650;2023-03-01T05:15:17;103122.78;;;0.64;74.78
37852;BME280;23691;52.486;4.650;2023-03-01T05:17:43;103125.47;;;0.63;74.82
37852;BME280;23691;52.486;4.650;2023-03-01T05:20:10;103123.69;;;0.63;74.79
37852;BME280;23691;52.486;4.650;2023-03-01T05:22:35;103125.50;;;0.61;74.65
37852;BME280;23691;52.486;4.650;2023-03-01T05:25:02;103123.81;;;0.59;74.71
37852;BME280;23691;52.486;4.650;2023-03-01T05:27:28;103118.63;;;0.56;74.91
37852;BME280;23691;52.486;4.650;2023-03-01T05:29:55;103118.75;;;0.53;74.94
37852;BME280;23691;52.486;4.650;2023-03-01T05:32:20;103119.66;;;0.52;74.99
37852;BME280;23691;52.486;4.650;2023-03-01T05:34:46;103104.72;;;0.52;75.13
37852;BME280;23691;52.486;4.650;2023-03-01T05:37:12;103102.97;;;0.51;75.23
37852;BME280;23691;52.486;4.650;2023-03-01T05:39:38;103099.47;;;0.51;75.25
37852;BME280;23691;52.486;4.650;2023-03-01T05:42:10;103093.34;;;0.50;75.18
37852;BME280;23691;52.486;4.650;2023-03-01T05:44:35;103097.75;;;0.50;75.23
37852;BME280;23691;52.486;4.650;2023-03-01T05:47:01;103087.22;;;0.50;75.20
37852;BME280;23691;52.486;4.650;2023-03-01T05:49:26;103084.53;;;0.51;74.98
37852;BME280;23691;52.486;4.650;2023-03-01T05:51:52;103086.31;;;0.51;75.16
37852;BME280;23691;52.486;4.650;2023-03-01T05:54:20;103083.69;;;0.49;74.83
37852;BME280;23691;52.486;4.650;2023-03-01T05:56:45;103083.75;;;0.48;74.73
37852;BME280;23691;52.486;4.650;2023-03-01T05:59:12;103082.91;;;0.47;75.23
37852;BME280;23691;52.486;4.650;2023-03-01T06:01:39;103083.88;;;0.45;75.18
37852;BME280;23691;52.486;4.650;2023-03-01T06:04:04;103080.34;;;0.44;75.07
37852;BME280;23691;52.486;4.650;2023-03-01T06:06:33;103090.09;;;0.42;74.96
37852;BME280;23691;52.486;4.650;2023-03-01T06:08:59;103084.00;;;0.40;75.08
37852;BME280;23691;52.486;4.650;2023-03-01T06:11:24;103084.84;;;0.40;75.05
37852;BME280;23691;52.486;4.650;2023-03-01T06:13:50;103081.28;;;0.41;75.11
37852;BME280;23691;52.486;4.650;2023-03-01T06:16:15;103085.66;;;0.42;75.10
37852;BME280;23691;52.486;4.650;2023-03-01T06:18:41;103077.81;;;0.41;74.99
37852;BME280;23691;52.486;4.650;2023-03-01T06:21:07;103083.03;;;0.42;75.09
37852;BME280;23691;52.486;4.650;2023-03-01T06:23:33;103085.66;;;0.42;75.01
37852;BME280;23691;52.486;4.650;2023-03-01T06:25:59;103072.50;;;0.42;75.46
37852;BME280;23691;52.486;4.650;2023-03-01T06:28:25;103070.72;;;0.43;75.35
37852;BME280;23691;52.486;4.650;2023-03-01T06:30:51;103067.16;;;0.44;75.25
37852;BME280;23691;52.486;4.650;2023-03-01T06:33:17;103069.69;;;0.49;75.45
37852;BME280;23691;52.486;4.650;2023-03-01T06:35:45;103075.75;;;0.51;75.94
37852;BME280;23691;52.486;4.650;2023-03-01T06:38:11;103065.19;;;0.52;76.23
37852;BME280;23691;52.486;4.650;2023-03-01T06:40:40;103073.81;;;0.57;76.05
37852;BME280;23691;52.486;4.650;2023-03-01T06:43:05;103078.03;;;0.63;76.01
37852;BME280;23691;52.486;4.650;2023-03-01T06:45:32;103082.56;;;0.59;76.10
37852;BME280;23691;52.486;4.650;2023-03-01T06:48:07;103086.03;;;0.60;76.24
37852;BME280;23691;52.486;4.650;2023-03-01T06:50:35;103085.13;;;0.61;76.46
37852;BME280;23691;52.486;4.650;2023-03-01T06:53:01;103090.38;;;0.61;76.35
37852;BME280;23691;52.486;4.650;2023-03-01T06:55:31;103085.97;;;0.61;76.37
37852;BME280;23691;52.486;4.650;2023-03-01T06:58:02;103086.78;;;0.65;76.57
37852;BME280;23691;52.486;4.650;2023-03-01T07:00:28;103086.66;;;0.68;76.38
37852;BME280;23691;52.486;4.650;2023-03-01T07:02:54;103079.59;;;0.70;76.60
37852;BME280;23691;52.486;4.650;2023-03-01T07:05:20;103081.25;;;0.73;76.91
37852;BME280;23691;52.486;4.650;2023-03-01T07:07:45;103090.81;;;0.77;76.81
37852;BME280;23691;52.486;4.650;2023-03-01T07:10:12;103085.47;;;0.78;76.84
37852;BME280;23691;52.486;4.650;2023-03-01T07:12:37;103089.78;;;0.81;77.03
37852;BME280;23691;52.486;4.650;2023-03-01T07:15:03;103090.69;;;0.81;77.23
37852;BME280;23691;52.486;4.650;2023-03-01T07:17:29;103100.31;;;0.82;77.17
37852;BME280;23691;52.486;4.650;2023-03-01T07:19:57;103098.53;;;0.83;77.18
37852;BME280;23691;52.486;4.650;2023-03-01T07:22:22;103096.72;;;0.85;77.29
37852;BME280;23691;52.486;4.650;2023-03-01T07:24:48;103100.09;;;0.89;77.38
37852;BME280;23691;52.486;4.650;2023-03-01T07:27:13;103107.88;;;0.93;77.30
37852;BME280;23691;52.486;4.650;2023-03-01T07:29:39;103105.91;;;1.00;77.43
37852;BME280;23691;52.486;4.650;2023-03-01T07:32:05;103104.94;;;1.04;77.37
37852;BME280;23691;52.486;4.650;2023-03-01T07:34:31;103099.34;;;1.13;77.65
37852;BME280;23691;52.486;4.650;2023-03-01T07:36:56;103097.47;;;1.18;77.77
37852;BME280;23691;52.486;4.650;2023-03-01T07:39:21;103098.22;;;1.22;77.56
37852;BME280;23691;52.486;4.650;2023-03-01T07:41:48;103103.44;;;1.23;77.96
37852;BME280;23691;52.486;4.650;2023-03-01T07:44:14;103105.88;;;1.29;77.76
37852;BME280;23691;52.486;4.650;2023-03-01T07:46:40;103102.16;;;1.35;77.49
37852;BME280;23691;52.486;4.650;2023-03-01T07:49:06;103110.75;;;1.42;77.70
37852;BME280;23691;52.486;4.650;2023-03-01T07:51:31;103107.75;;;1.53;77.69
37852;BME280;23691;52.486;4.650;2023-03-01T07:53:57;103098.53;;;1.66;77.38
37852;BME280;23691;52.486;4.650;2023-03-01T07:56:22;103095.47;;;1.78;77.64
37852;BME280;23691;52.486;4.650;2023-03-01T07:58:47;103093.28;;;1.91;78.10
37852;BME280;23691;52.486;4.650;2023-03-01T08:01:18;103088.41;;;2.04;78.04
37852;BME280;23691;52.486;4.650;2023-03-01T08:03:45;103090.78;;;2.11;77.78
37852;BME280;23691;52.486;4.650;2023-03-01T08:06:12;103089.47;;;2.23;77.70
37852;BME280;23691;52.486;4.650;2023-03-01T08:08:38;103092.66;;;2.33;78.16
37852;BME280;23691;52.486;4.650;2023-03-01T08:11:05;103094.16;;;2.40;77.74
37852;BME280;23691;52.486;4.650;2023-03-01T08:13:31;103099.13;;;2.49;77.95
37852;BME280;23691;52.486;4.650;2023-03-01T08:16:05;103097.97;;;2.56;77.99
37852;BME280;23691;52.486;4.650;2023-03-01T08:18:31;103099.38;;;2.65;77.94
37852;BME280;23691;52.486;4.650;2023-03-01T08:21:02;103100.84;;;2.74;77.88
37852;BME280;23691;52.486;4.650;2023-03-01T08:23:27;103098.78;;;2.80;77.61
37852;BME280;23691;52.486;4.650;2023-03-01T08:25:52;103092.34;;;2.88;78.05
37852;BME280;23691;52.486;4.650;2023-03-01T08:28:18;103099.09;;;2.96;78.10
37852;BME280;23691;52.486;4.650;2023-03-01T08:30:44;103089.19;;;3.01;78.03
37852;BME280;23691;52.486;4.650;2023-03-01T08:33:15;103088.06;;;3.07;78.13
37852;BME280;23691;52.486;4.650;2023-03-01T08:35:40;103091.16;;;3.18;78.05
37852;BME280;23691;52.486;4.650;2023-03-01T08:38:11;103088.25;;;3.25;78.19
37852;BME280;23691;52.486;4.650;2023-03-01T08:40:37;103082.88;;;3.28;77.84
37852;BME280;23691;52.486;4.650;2023-03-01T08:43:02;103085.25;;;3.34;77.74
37852;BME280;23691;52.486;4.650;2023-03-01T08:45:28;103092.00;;;3.41;77.94
37852;BME280;23691;52.486;4.650;2023-03-01T08:47:53;103083.69;;;3.50;78.01
37852;BME280;23691;52.486;4.650;2023-03-01T08:50:19;103082.53;;;3.57;77.92
37852;BME280;23691;52.486;4.650;2023-03-01T08:52:44;103085.69;;;3.65;78.02
37852;BME280;23691;52.486;4.650;2023-03-01T08:55:09;103078.38;;;3.72;77.88
37852;BME280;23691;52.486;4.650;2023-03-01T08:57:35;103075.44;;;3.78;77.72
37852;BME280;23691;52.486;4.650;2023-03-01T09:00:00;103069.16;;;3.81;77.71
37852;BME280;23691;52.486;4.650;2023-03-01T09:02:26;103077.84;;;3.84;77.90
37852;BME280;23691;52.486;4.650;2023-03-01T09:04:51;103077.34;;;3.95;77.73
37852;BME280;23691;52.486;4.650;2023-03-01T09:07:17;103079.63;;;4.04;77.70
37852;BME280;23691;52.486;4.650;2023-03-01T09:09:42;103081.91;;;4.12;77.69
37852;BME280;23691;52.486;4.650;2023-03-01T09:12:07;103074.56;;;4.19;77.86
37852;BME280;23691;52.486;4.650;2023-03-01T09:14:33;103071.63;;;4.25;77.63
37852;BME280;23691;52.486;4.650;2023-03-01T09:16:58;103068.56;;;4.34;77.53
37852;BME280;23691;52.486;4.650;2023-03-01T09:19:27;103064.56;;;4.44;77.87
37852;BME280;23691;52.486;4.650;2023-03-01T09:21:53;103067.59;;;4.56;77.69
37852;BME280;23691;52.486;4.650;2023-03-01T09:24:20;103065.44;;;4.64;77.93
37852;BME280;23691;52.486;4.650;2023-03-01T09:26:46;103071.66;;;4.82;77.73
37852;BME280;23691;52.486;4.650;2023-03-01T09:29:12;103074.25;;;5.02;77.58
37852;BME280;23691;52.486;4.650;2023-03-01T09:31:38;103064.59;;;5.19;77.23
37852;BME280;23691;52.486;4.650;2023-03-01T09:34:05;103066.09;;;5.24;77.36
37852;BME280;23691;52.486;4.650;2023-03-01T09:36:33;103065.00;;;5.28;77.61
37852;BME280;23691;52.486;4.650;2023-03-01T09:38:59;103061.44;;;5.29;77.71
37852;BME280;23691;52.486;4.650;2023-03-01T09:42:19;103052.44;;;5.32;77.73
37852;BME280;23691;52.486;4.650;2023-03-01T09:47:34;103051.44;;;5.34;77.64
37852;BME280;23691;52.486;4.650;2023-03-01T09:50:20;103057.66;;;5.33;77.91
37852;BME280;23691;52.486;4.650;2023-03-01T09:52:48;103054.78;;;5.38;77.91
37852;BME280;23691;52.486;4.650;2023-03-01T09:55:21;103042.94;;;5.45;77.91
37852;BME280;23691;52.486;4.650;2023-03-01T09:57:55;103046.28;;;5.49;77.64
37852;BME280;23691;52.486;4.650;2023-03-01T10:00:33;103047.69;;;5.56;77.58
37852;BME280;23691;52.486;4.650;2023-03-01T10:03:36;103048.41;;;5.59;77.35
37852;BME280;23691;52.486;4.650;2023-03-01T10:06:21;103051.97;;;5.58;77.58
37852;BME280;23691;52.486;4.650;2023-03-01T10:08:57;103039.66;;;5.57;77.59
37852;BME280;23691;52.486;4.650;2023-03-01T10:11:26;103051.06;;;5.59;77.43
37852;BME280;23691;52.486;4.650;2023-03-01T10:13:58;103043.47;;;5.69;77.46
37852;BME280;23691;52.486;4.650;2023-03-01T10:16:37;103041.22;;;5.79;77.13
37852;BME280;23691;52.486;4.650;2023-03-01T10:19:05;103034.78;;;5.83;77.13
37852;BME280;23691;52.486;4.650;2023-03-01T10:21:36;103028.38;;;5.87;76.91
37852;BME280;23691;52.486;4.650;2023-03-01T10:24:11;103023.66;;;5.92;76.65
37852;BME280;23691;52.486;4.650;2023-03-01T10:26:55;103025.72;;;6.05;76.53
37852;BME280;23691;52.486;4.650;2023-03-01T10:29:28;103024.53;;;6.10;76.42
37852;BME280;23691;52.486;4.650;2023-03-01T10:31:55;103019.75;;;6.17;76.07
37852;BME280;23691;52.486;4.650;2023-03-01T10:34:31;103023.97;;;6.21;75.86
37852;BME280;23691;52.486;4.650;2023-03-01T10:37:01;103026.19;;;6.29;75.64
37852;BME280;23691;52.486;4.650;2023-03-01T10:39:33;103023.47;;;6.30;75.11
37852;BME280;23691;52.486;4.650;2023-03-01T10:42:02;103021.56;;;6.32;74.87
37852;BME280;23691;52.486;4.650;2023-03-01T10:44:44;103023.66;;;6.43;74.38
37852;BME280;23691;52.486;4.650;2023-03-01T10:49:52;103019.13;;;6.45;73.69
37852;BME280;23691;52.486;4.650;2023-03-01T10:52:21;103014.91;;;6.41;73.10
37852;BME280;23691;52.486;4.650;2023-03-01T10:54:57;103014.13;;;6.39;72.63
37852;BME280;23691;52.486;4.650;2023-03-01T10:57:35;103007.28;;;6.51;72.42
37852;BME280;23691;52.486;4.650;2023-03-01T11:00:22;102999.53;;;6.62;71.93
37852;BME280;23691;52.486;4.650;2023-03-01T11:02:50;103005.88;;;6.59;71.30
37852;BME280;23691;52.486;4.650;2023-03-01T11:05:25;102996.63;;;6.66;70.68
37852;BME280;23691;52.486;4.650;2023-03-01T11:08:04;102998.50;;;6.64;69.75
37852;BME280;23691;52.486;4.650;2023-03-01T11:10:35;103005.56;;;6.65;69.28
37852;BME280;23691;52.486;4.650;2023-03-01T11:13:16;102987.53;;;6.71;68.70
37852;BME280;23691;52.486;4.650;2023-03-01T11:15:43;102987.09;;;6.78;68.27
37852;BME280;23691;52.486;4.650;2023-03-01T11:18:22;102995.50;;;6.86;67.50
37852;BME280;23691;52.486;4.650;2023-03-01T11:20:50;102979.25;;;6.91;67.06
37852;BME280;23691;52.486;4.650;2023-03-01T11:23:17;102975.50;;;6.95;66.42
37852;BME280;23691;52.486;4.650;2023-03-01T11:25:48;102977.78;;;7.01;65.72
37852;BME280;23691;52.486;4.650;2023-03-01T11:28:17;102972.38;;;7.03;64.86
37852;BME280;23691;52.486;4.650;2023-03-01T11:30:55;102962.50;;;7.05;64.61
37852;BME280;23691;52.486;4.650;2023-03-01T11:33:44;102955.09;;;7.10;64.15
37852;BME280;23691;52.486;4.650;2023-03-01T11:38:55;102958.00;;;7.21;63.68
37852;BME280;23691;52.486;4.650;2023-03-01T11:41:25;102967.69;;;7.22;63.18
37852;BME280;23691;52.486;4.650;2023-03-01T11:43:55;102955.91;;;7.26;62.68
37852;BME280;23691;52.486;4.650;2023-03-01T11:46:39;102952.88;;;7.32;62.15
37852;BME280;23691;52.486;4.650;2023-03-01T11:52:12;102944.25;;;7.43;61.47
37852;BME280;23691;52.486;4.650;2023-03-01T12:06:04;102929.81;;;7.76;59.81
37852;BME280;23691;52.486;4.650;2023-03-01T12:08:39;102928.19;;;7.73;59.20
37852;BME280;23691;52.486;4.650;2023-03-01T12:16:35;102929.91;;;7.74;57.73
37852;BME280;23691;52.486;4.650;2023-03-01T12:19:30;102924.22;;;7.81;57.33
37852;BME280;23691;52.486;4.650;2023-03-01T12:22:17;102919.53;;;7.84;57.02
37852;BME280;23691;52.486;4.650;2023-03-01T12:28:16;102919.03;;;7.92;55.70
37852;BME280;23691;52.486;4.650;2023-03-01T12:31:00;102914.47;;;7.94;55.68
37852;BME280;23691;52.486;4.650;2023-03-01T12:33:54;102904.28;;;8.01;55.34
37852;BME280;23691;52.486;4.650;2023-03-01T12:44:51;102888.94;;;8.04;53.90
37852;BME280;23691;52.486;4.650;2023-03-01T12:47:36;102890.56;;;8.07;53.67
37852;BME280;23691;52.486;4.650;2023-03-01T12:50:18;102874.69;;;8.05;53.57
37852;BME280;23691;52.486;4.650;2023-03-01T12:52:49;102893.91;;;8.10;53.54
37852;BME280;23691;52.486;4.650;2023-03-01T12:55:28;102878.00;;;8.09;52.45
37852;BME280;23691;52.486;4.650;2023-03-01T13:00:47;102875.22;;;8.10;52.70
37852;BME280;23691;52.486;4.650;2023-03-01T13:03:31;102860.56;;;8.17;52.77
37852;BME280;23691;52.486;4.650;2023-03-01T13:06:25;102865.47;;;8.24;52.72
37852;BME280;23691;52.486;4.650;2023-03-01T13:09:00;102861.09;;;8.23;52.36
37852;BME280;23691;52.486;4.650;2023-03-01T13:11:26;102853.88;;;8.25;52.44
37852;BME280;23691;52.486;4.650;2023-03-01T13:16:47;102854.41;;;8.44;52.03
37852;BME280;23691;52.486;4.650;2023-03-01T13:19:26;102847.81;;;8.50;51.87
37852;BME280;23691;52.486;4.650;2023-03-01T13:21:54;102848.94;;;8.46;51.60
37852;BME280;23691;52.486;4.650;2023-03-01T13:24:27;102843.25;;;8.37;51.54
37852;BME280;23691;52.486;4.650;2023-03-01T13:29:50;102852.09;;;8.38;51.59
37852;BME280;23691;52.486;4.650;2023-03-01T13:32:20;102848.22;;;8.29;51.06
37852;BME280;23691;52.486;4.650;2023-03-01T13:34:48;102848.03;;;8.32;51.29
37852;BME280;23691;52.486;4.650;2023-03-01T13:37:22;102845.91;;;8.37;51.13
37852;BME280;23691;52.486;4.650;2023-03-01T13:39:51;102843.25;;;8.37;51.10
37852;BME280;23691;52.486;4.650;2023-03-01T13:42:38;102836.94;;;8.38;51.04
37852;BME280;23691;52.486;4.650;2023-03-01T13:47:51;102829.22;;;8.48;50.88
37852;BME280;23691;52.486;4.650;2023-03-01T13:50:24;102824.63;;;8.50;50.79
37852;BME280;23691;52.486;4.650;2023-03-01T13:53:11;102821.00;;;8.51;51.11
37852;BME280;23691;52.486;4.650;2023-03-01T13:55:44;102819.31;;;8.50;50.99
37852;BME280;23691;52.486;4.650;2023-03-01T14:00:42;102805.41;;;8.45;51.10
37852;BME280;23691;52.486;4.650;2023-03-01T14:05:33;102808.88;;;8.33;51.79
37852;BME280;23691;52.486;4.650;2023-03-01T14:07:59;102798.41;;;8.30;51.83
37852;BME280;23691;52.486;4.650;2023-03-01T14:10:35;102799.25;;;8.30;52.01
37852;BME280;23691;52.486;4.650;2023-03-01T14:13:19;102800.88;;;8.33;52.32
37852;BME280;23691;52.486;4.650;2023-03-01T14:16:12;102794.03;;;8.29;52.46
37852;BME280;23691;52.486;4.650;2023-03-01T14:21:30;102793.78;;;8.19;53.34
37852;BME280;23691;52.486;4.650;2023-03-01T14:23:58;102796.75;;;8.14;53.13